createdAt,value
2022-12-04T00:01:12.671Z,0.64
2022-12-04T00:03:40.131Z,0.77
2022-12-04T00:06:15.557Z,1.06
2022-12-04T00:08:49.056Z,1.13
2022-12-04T00:11:19.592Z,0.92
2022-12-04T00:13:46.869Z,0.59
2022-12-04T00:16:18.067Z,0.81
2022-12-04T00:18:45.270Z,0.59
2022-12-04T00:21:13.613Z,0.61
2022-12-04T00:23:41.202Z,0.83
2022-12-04T00:26:12.597Z,0.94
2022-12-04T00:28:40.251Z,0.82
2022-12-04T00:31:12.104Z,1.30
2022-12-04T00:33:38.789Z,0.67
2022-12-04T00:36:11.878Z,0.64
2022-12-04T00:38:39.206Z,0.66
2022-12-04T00:41:08.827Z,0.97
2022-12-04T00:43:35.427Z,0.88
2022-12-04T00:46:02.341Z,0.46
2022-12-04T00:48:29.060Z,0.88
2022-12-04T00:53:39.016Z,1.20
2022-12-04T00:56:11.266Z,1.38
2022-12-04T00:58:40.106Z,0.93
2022-12-04T01:01:18.866Z,1.16
2022-12-04T01:03:46.387Z,1.41
2022-12-04T01:06:28.378Z,1.66
2022-12-04T01:08:57.235Z,1.32
2022-12-04T01:11:28.587Z,1.24
2022-12-04T01:13:59.024Z,1.33
2022-12-04T01:16:32.059Z,1.55
2022-12-04T01:18:58.912Z,1.31
2022-12-04T01:21:28.344Z,1.16
2022-12-04T01:23:59.101Z,1.53
2022-12-04T01:26:25.963Z,1.22
2022-12-04T01:28:52.609Z,0.98
2022-12-04T01:31:21.688Z,1.07
2022-12-04T01:33:49.475Z,1.39
2022-12-04T01:36:19.380Z,1.48
2022-12-04T01:38:46.458Z,1.11
2022-12-04T01:41:16.347Z,1.20
2022-12-04T01:43:45.964Z,1.08
2022-12-04T01:46:14.779Z,1.32
2022-12-04T01:48:52.570Z,1.26
2022-12-04T01:51:37.886Z,1.43
2022-12-04T01:54:28.607Z,0.97
2022-12-04T01:57:04.335Z,1.03
2022-12-04T01:59:36.014Z,1.38
2022-12-04T02:02:07.089Z,1.03
2022-12-04T02:04:34.983Z,0.90
2022-12-04T02:07:02.246Z,1.04
2022-12-04T02:09:31.191Z,1.04
2022-12-04T02:12:08.288Z,1.52
2022-12-04T02:14:38.107Z,1.27
2022-12-04T02:17:27.689Z,1.24
2022-12-04T02:20:01.971Z,1.31
2022-12-04T02:23:11.681Z,1.62
2022-12-04T02:25:54.349Z,0.91
2022-12-04T02:28:39.242Z,1.42
2022-12-04T02:31:12.405Z,0.90
2022-12-04T02:33:48.362Z,1.53
2022-12-04T02:36:24.216Z,1.29
2022-12-04T02:39:14.687Z,1.20
2022-12-04T02:41:53.338Z,1.35
2022-12-04T02:44:27.594Z,1.27
2022-12-04T02:47:01.542Z,1.36
2022-12-04T02:49:37.894Z,0.97
2022-12-04T02:52:14.024Z,1.22
2022-12-04T02:54:45.779Z,1.04
2022-12-04T02:57:24.837Z,1.35
2022-12-04T02:59:55.907Z,1.08
2022-12-04T03:02:34.894Z,1.64
2022-12-04T03:05:28.683Z,1.41
2022-12-04T03:07:59.801Z,1.26
2022-12-04T03:10:40.831Z,1.53
2022-12-04T03:13:44.779Z,1.57
2022-12-04T03:16:19.730Z,1.34
2022-12-04T03:19:02.411Z,1.52
2022-12-04T03:21:35.916Z,1.24
2022-12-04T03:24:11.459Z,1.55
2022-12-04T03:26:44.886Z,1.79
2022-12-04T03:29:11.524Z,1.20
2022-12-04T03:31:59.612Z,1.32
2022-12-04T03:34:33.462Z,1.26
2022-12-04T03:37:06.938Z,1.42
2022-12-04T03:40:01.227Z,1.56
2022-12-04T03:42:37.543Z,1.06
2022-12-04T03:45:14.928Z,1.35
2022-12-04T03:47:51.347Z,1.39
2022-12-04T03:50:30.062Z,1.42
2022-12-04T03:53:16.628Z,1.39
2022-12-04T03:56:02.061Z,1.22
2022-12-04T03:58:32.900Z,1.40
2022-12-04T04:01:04.132Z,1.39
2022-12-04T04:03:38.528Z,1.46
2022-12-04T04:06:14.178Z,1.41
2022-12-04T04:08:45.320Z,1.28
2022-12-04T04:11:27.838Z,1.16
2022-12-04T04:14:20.308Z,1.60
2022-12-04T04:17:20.952Z,1.46
2022-12-04T04:20:12.862Z,1.26
2022-12-04T04:22:59.400Z,1.07
2022-12-04T04:25:30.923Z,1.01
2022-12-04T04:27:58.778Z,1.20
2022-12-04T04:30:27.433Z,1.28
2022-12-04T04:33:27.193Z,1.36
2022-12-04T04:36:02.470Z,1.49
2022-12-04T04:38:53.268Z,1.38
2022-12-04T04:41:28.995Z,1.46
2022-12-04T04:44:11.878Z,1.21
2022-12-04T04:46:45.285Z,1.12
2022-12-04T04:49:14.678Z,1.04
2022-12-04T04:51:42.663Z,1.28
2022-12-04T04:54:12.106Z,1.20
2022-12-04T04:56:44.423Z,1.26
2022-12-04T04:59:12.002Z,1.06
2022-12-04T05:01:47.143Z,1.27
2022-12-04T05:04:14.011Z,1.38
2022-12-04T05:06:42.829Z,1.41
2022-12-04T05:09:09.497Z,1.14
2022-12-04T05:11:36.898Z,1.40
2022-12-04T05:14:06.606Z,1.40
2022-12-04T05:16:33.451Z,1.30
2022-12-04T05:19:18.657Z,1.53
2022-12-04T05:21:45.338Z,1.48
2022-12-04T05:24:11.899Z,1.62
2022-12-04T05:26:38.561Z,1.57
2022-12-04T05:29:05.155Z,1.30
2022-12-04T05:31:31.928Z,1.45
2022-12-04T05:33:58.620Z,1.10
2022-12-04T05:36:25.251Z,1.41
2022-12-04T05:38:51.827Z,1.41
2022-12-04T05:41:18.454Z,1.42
2022-12-04T05:43:45.125Z,1.43
2022-12-04T05:46:11.813Z,1.54
2022-12-04T05:48:38.504Z,1.44
2022-12-04T05:51:09.860Z,1.57
2022-12-04T05:53:37.139Z,1.52
2022-12-04T05:56:05.452Z,1.10
2022-12-04T05:58:35.255Z,1.38
2022-12-04T06:01:08.515Z,1.63
2022-12-04T06:03:35.189Z,1.46
2022-12-04T06:06:01.806Z,1.36
2022-12-04T06:08:28.434Z,1.57
2022-12-04T06:10:55.011Z,1.74
2022-12-04T06:13:28.823Z,1.72
2022-12-04T06:15:55.529Z,1.76
2022-12-04T06:18:22.160Z,1.68
2022-12-04T06:20:48.858Z,1.68
2022-12-04T06:23:15.629Z,1.51
2022-12-04T06:25:42.331Z,1.63
2022-12-04T06:28:09.107Z,1.57
2022-12-04T06:30:35.817Z,1.67
2022-12-04T06:33:02.455Z,1.80
2022-12-04T06:35:29.166Z,1.72
2022-12-04T06:37:55.764Z,1.87
2022-12-04T06:40:22.397Z,1.80
2022-12-04T06:42:49.050Z,1.68
2022-12-04T06:45:15.766Z,1.56
2022-12-04T06:47:42.374Z,1.15
2022-12-04T06:50:09.322Z,1.29
2022-12-04T06:52:36.670Z,1.61
2022-12-04T06:55:03.455Z,1.54
2022-12-04T06:57:30.114Z,1.22
2022-12-04T06:59:57.118Z,1.40
2022-12-04T07:02:24.282Z,1.36
2022-12-04T07:04:55.403Z,1.27
2022-12-04T07:07:22.154Z,1.55
2022-12-04T07:09:48.735Z,1.26
2022-12-04T07:12:22.625Z,1.42
2022-12-04T07:14:49.307Z,1.55
2022-12-04T07:17:15.960Z,1.13
2022-12-04T07:19:42.630Z,1.21
2022-12-04T07:22:09.336Z,1.18
2022-12-04T07:24:37.610Z,1.37
2022-12-04T07:27:04.779Z,1.19
2022-12-04T07:29:31.870Z,0.85
2022-12-04T07:31:58.481Z,1.54
2022-12-04T07:34:27.556Z,1.29
2022-12-04T07:36:54.225Z,1.35
2022-12-04T07:39:20.861Z,1.39
2022-12-04T07:41:47.444Z,1.08
2022-12-04T07:44:14.571Z,0.87
2022-12-04T07:46:41.132Z,1.09
2022-12-04T07:49:11.428Z,0.95
2022-12-04T07:51:38.173Z,0.95
2022-12-04T07:54:04.756Z,0.86
2022-12-04T07:56:33.321Z,1.21
2022-12-04T07:59:01.053Z,0.86
2022-12-04T08:01:33.930Z,0.90
2022-12-04T08:04:01.110Z,0.80
2022-12-04T08:06:29.659Z,1.18
2022-12-04T08:08:57.448Z,1.35
2022-12-04T08:11:26.563Z,0.94
2022-12-04T08:13:58.933Z,1.35
2022-12-04T08:16:31.005Z,1.25
2022-12-04T08:18:58.360Z,1.02
2022-12-04T08:21:27.576Z,1.16
2022-12-04T08:23:56.209Z,1.19
2022-12-04T08:26:24.887Z,1.45
2022-12-04T08:28:56.115Z,1.28
2022-12-04T08:31:25.365Z,1.06
2022-12-04T08:33:54.196Z,1.13
2022-12-04T08:36:21.782Z,0.90
2022-12-04T08:38:49.143Z,1.03
2022-12-04T08:41:18.029Z,1.48
2022-12-04T08:43:45.314Z,1.19
2022-12-04T08:46:15.960Z,1.14
2022-12-04T08:48:44.215Z,0.97
2022-12-04T08:51:20.793Z,1.49
2022-12-04T08:53:47.497Z,1.11
2022-12-04T08:56:14.558Z,1.20
2022-12-04T08:58:41.238Z,1.42
2022-12-04T09:01:11.300Z,1.63
2022-12-04T09:03:38.268Z,1.31
2022-12-04T09:06:07.467Z,1.69
2022-12-04T09:08:35.103Z,1.69
2022-12-04T09:11:12.803Z,1.53
2022-12-04T09:13:40.980Z,1.60
2022-12-04T09:16:11.155Z,1.46
2022-12-04T09:18:38.794Z,1.26
2022-12-04T09:21:11.034Z,1.53
2022-12-04T09:23:39.322Z,1.73
2022-12-04T09:26:15.961Z,1.95
2022-12-04T09:28:42.629Z,1.48
2022-12-04T09:31:11.969Z,1.46
2022-12-04T09:33:38.666Z,1.48
2022-12-04T09:36:05.615Z,1.35
2022-12-04T09:38:32.286Z,1.12
2022-12-04T09:41:04.660Z,1.65
2022-12-04T09:43:53.439Z,1.53
2022-12-04T09:46:37.890Z,1.59
2022-12-04T09:49:16.544Z,1.97
2022-12-04T09:51:46.712Z,1.71
2022-12-04T09:54:17.974Z,1.49
2022-12-04T09:56:54.218Z,1.86
2022-12-04T09:59:28.532Z,1.87
2022-12-04T10:02:15.513Z,1.57
2022-12-04T10:04:42.443Z,1.69
2022-12-04T10:07:45.857Z,2.12
2022-12-04T10:10:18.430Z,1.43
2022-12-04T10:13:01.362Z,1.96
2022-12-04T10:15:55.733Z,1.83
2022-12-04T10:18:35.442Z,2.10
2022-12-04T10:21:30.124Z,2.01
2022-12-04T10:24:17.014Z,2.04
2022-12-04T10:26:46.876Z,1.95
2022-12-04T10:29:24.386Z,1.86
2022-12-04T10:31:54.319Z,1.94
2022-12-04T10:34:25.685Z,1.64
2022-12-04T10:36:55.794Z,1.82
2022-12-04T10:39:35.335Z,2.20
2022-12-04T10:42:04.664Z,1.63
2022-12-04T10:44:31.272Z,1.90
2022-12-04T10:47:03.175Z,1.69
2022-12-04T10:49:34.292Z,1.54
2022-12-04T10:52:01.166Z,1.67
2022-12-04T10:54:55.204Z,2.08
2022-12-04T10:57:24.109Z,1.73
2022-12-04T10:59:56.481Z,2.02
2022-12-04T11:02:34.566Z,1.91
2022-12-04T11:05:08.537Z,1.67
2022-12-04T11:07:49.366Z,1.73
2022-12-04T11:10:33.320Z,1.80
2022-12-04T11:13:03.945Z,1.83
2022-12-04T11:15:35.004Z,1.81
2022-12-04T11:18:17.458Z,1.80
2022-12-04T11:20:52.149Z,2.04
2022-12-04T11:23:19.119Z,1.93
2022-12-04T11:25:51.118Z,2.23
2022-12-04T11:28:43.318Z,1.91
2022-12-04T11:31:16.742Z,1.74
2022-12-04T11:33:47.903Z,1.74
2022-12-04T11:36:28.689Z,2.15
2022-12-04T11:39:27.122Z,1.84
2022-12-04T11:42:05.734Z,1.97
2022-12-04T11:44:35.559Z,1.84
2022-12-04T11:47:04.293Z,1.83
2022-12-04T11:49:32.743Z,1.91
2022-12-04T11:52:29.952Z,2.56
2022-12-04T11:55:28.343Z,2.49
2022-12-04T11:58:24.874Z,2.16
2022-12-04T12:01:06.439Z,2.37
2022-12-04T12:03:49.299Z,2.19
2022-12-04T12:06:51.956Z,1.96
2022-12-04T12:09:48.120Z,1.95
2022-12-04T12:12:23.019Z,2.12
2022-12-04T12:15:21.825Z,2.27
2022-12-04T12:18:22.498Z,2.36
2022-12-04T12:21:01.837Z,2.20
2022-12-04T12:23:34.131Z,2.08
2022-12-04T12:26:14.885Z,1.83
2022-12-04T12:29:10.344Z,2.37
2022-12-04T12:32:19.676Z,2.11
2022-12-04T12:34:47.555Z,2.12
2022-12-04T12:37:27.371Z,1.93
2022-12-04T12:40:26.600Z,2.22
2022-12-04T12:42:58.649Z,2.27
2022-12-04T12:45:43.970Z,2.10
2022-12-04T12:48:22.716Z,2.09
2022-12-04T12:51:15.038Z,2.09
2022-12-04T12:53:48.087Z,2.21
2022-12-04T12:56:17.377Z,2.14
2022-12-04T12:58:58.187Z,1.93
2022-12-04T13:01:39.828Z,1.96
2022-12-04T13:04:18.212Z,2.26
2022-12-04T13:06:46.793Z,2.07
2022-12-04T13:09:31.829Z,2.42
2022-12-04T13:12:26.299Z,2.42
2022-12-04T13:14:52.953Z,1.80
2022-12-04T13:17:25.630Z,2.05
2022-12-04T13:19:57.104Z,1.83
2022-12-04T13:22:35.000Z,2.13
2022-12-04T13:25:12.382Z,2.11
2022-12-04T13:28:16.709Z,1.92
2022-12-04T13:31:22.499Z,2.37
2022-12-04T13:34:26.654Z,1.98
2022-12-04T13:36:53.283Z,1.73
2022-12-04T13:39:37.851Z,2.08
2022-12-04T13:42:07.181Z,1.75
2022-12-04T13:44:35.564Z,1.86
2022-12-04T13:47:08.595Z,1.94
2022-12-04T13:49:44.445Z,1.97
2022-12-04T13:52:25.013Z,1.96
2022-12-04T13:54:59.802Z,1.93
2022-12-04T13:57:28.221Z,1.89
2022-12-04T14:00:08.595Z,2.21
2022-12-04T14:02:51.093Z,2.01
2022-12-04T14:05:27.140Z,2.20
2022-12-04T14:08:23.221Z,1.80
2022-12-04T14:11:08.583Z,2.16
2022-12-04T14:13:56.553Z,2.23
2022-12-04T14:16:36.616Z,2.15
2022-12-04T14:19:04.992Z,1.86
2022-12-04T14:22:01.330Z,2.14
2022-12-04T14:24:39.843Z,2.16
2022-12-04T14:27:34.794Z,2.44
2022-12-04T14:30:02.037Z,2.21
2022-12-04T14:32:33.775Z,1.91
2022-12-04T14:35:01.910Z,2.04
2022-12-04T14:37:36.553Z,2.39
2022-12-04T14:40:07.431Z,2.11
2022-12-04T14:42:37.985Z,2.20
2022-12-04T14:45:20.560Z,2.33
2022-12-04T14:48:07.906Z,2.57
2022-12-04T14:50:47.533Z,1.85
2022-12-04T14:53:32.559Z,2.43
2022-12-04T14:56:22.432Z,2.51
2022-12-04T14:58:49.810Z,2.40
2022-12-04T15:01:25.331Z,2.49
2022-12-04T15:03:59.178Z,2.62
2022-12-04T15:06:33.005Z,2.25
2022-12-04T15:09:20.926Z,2.41
2022-12-04T15:12:17.295Z,2.40
2022-12-04T15:14:50.073Z,2.33
2022-12-04T15:17:18.653Z,1.95
2022-12-04T15:19:45.811Z,2.35
2022-12-04T15:22:28.290Z,2.13
2022-12-04T15:24:56.006Z,1.77
2022-12-04T15:27:31.681Z,2.02
2022-12-04T15:30:01.354Z,1.94
2022-12-04T15:32:28.806Z,2.14
2022-12-04T15:35:01.072Z,2.25
2022-12-04T15:37:30.580Z,2.24
2022-12-04T15:39:59.156Z,2.40
2022-12-04T15:42:29.850Z,2.32
2022-12-04T15:45:10.119Z,2.23
2022-12-04T15:47:42.483Z,2.11
2022-12-04T15:50:10.607Z,1.99
2022-12-04T15:52:38.174Z,1.92
2022-12-04T15:55:09.229Z,2.01
2022-12-04T15:57:57.558Z,2.06
2022-12-04T16:00:24.271Z,2.14
2022-12-04T16:02:50.902Z,2.39
2022-12-04T16:05:20.614Z,2.40
2022-12-04T16:07:59.583Z,2.59
2022-12-04T16:10:29.350Z,2.08
2022-12-04T16:12:59.470Z,2.14
2022-12-04T16:15:34.735Z,2.48
2022-12-04T16:18:01.396Z,2.15
2022-12-04T16:20:27.988Z,2.26
2022-12-04T16:22:55.050Z,2.41
2022-12-04T16:25:21.675Z,2.56
2022-12-04T16:27:48.759Z,2.41
2022-12-04T16:30:15.526Z,2.44
2022-12-04T16:32:42.289Z,2.28
2022-12-04T16:35:15.871Z,2.27
2022-12-04T16:37:43.041Z,2.16
2022-12-04T16:40:11.980Z,2.40
2022-12-04T16:42:39.751Z,2.16
2022-12-04T16:45:21.744Z,2.35
2022-12-04T16:47:48.733Z,2.35
2022-12-04T16:50:15.365Z,2.11
2022-12-04T16:52:42.032Z,2.36
2022-12-04T16:55:31.148Z,2.40
2022-12-04T16:57:57.761Z,2.27
2022-12-04T17:00:24.521Z,2.27
2022-12-04T17:02:51.618Z,2.30
2022-12-04T17:05:21.825Z,2.05
2022-12-04T17:07:48.942Z,2.29
2022-12-04T17:10:23.572Z,2.52
2022-12-04T17:12:54.650Z,2.63
2022-12-04T17:15:21.747Z,2.13
2022-12-04T17:17:48.686Z,2.36
2022-12-04T17:20:17.800Z,2.28
2022-12-04T17:22:44.847Z,2.06
2022-12-04T17:25:12.416Z,2.36
2022-12-04T17:27:39.698Z,2.12
2022-12-04T17:30:08.563Z,2.34
2022-12-04T17:32:35.467Z,2.37
2022-12-04T17:35:03.277Z,2.36
2022-12-04T17:37:32.154Z,2.59
2022-12-04T17:40:00.866Z,2.10
2022-12-04T17:42:27.747Z,2.25
2022-12-04T17:44:54.533Z,2.27
2022-12-04T17:47:21.225Z,2.46
2022-12-04T17:49:47.817Z,2.21
2022-12-04T17:52:14.570Z,2.35
2022-12-04T17:54:41.179Z,2.31
2022-12-04T17:57:07.846Z,2.12
2022-12-04T17:59:34.481Z,2.02
2022-12-04T18:02:01.046Z,2.44
2022-12-04T18:04:27.778Z,2.43
2022-12-04T18:06:56.436Z,2.48
2022-12-04T18:09:23.115Z,2.06
2022-12-04T18:11:49.709Z,2.43
2022-12-04T18:14:18.759Z,2.46
2022-12-04T18:16:52.018Z,2.44
2022-12-04T18:19:21.174Z,2.27
2022-12-04T18:21:48.101Z,2.06
2022-12-04T18:24:15.048Z,2.42
2022-12-04T18:26:44.465Z,2.26
2022-12-04T18:29:13.782Z,2.23
2022-12-04T18:31:41.224Z,1.99
2022-12-04T18:34:13.409Z,2.39
2022-12-04T18:36:40.941Z,2.27
2022-12-04T18:39:11.732Z,2.18
2022-12-04T18:41:38.405Z,1.93
2022-12-04T18:44:05.129Z,2.15
2022-12-04T18:46:32.973Z,2.57
2022-12-04T18:49:03.384Z,2.36
2022-12-04T18:51:31.245Z,2.64
2022-12-04T18:54:06.818Z,2.51
2022-12-04T18:56:35.335Z,2.41
2022-12-04T18:59:08.260Z,2.53
2022-12-04T19:01:35.000Z,2.27
2022-12-04T19:04:06.307Z,2.55
2022-12-04T19:06:41.934Z,2.77
2022-12-04T19:09:11.502Z,2.30
2022-12-04T19:11:39.108Z,2.68
2022-12-04T19:14:17.590Z,2.68
2022-12-04T19:16:47.802Z,2.75
2022-12-04T19:19:15.617Z,2.54
2022-12-04T19:21:42.343Z,2.36
2022-12-04T19:24:10.437Z,2.41
2022-12-04T19:26:37.774Z,2.14
2022-12-04T19:29:05.333Z,2.48
2022-12-04T19:31:34.809Z,2.16
2022-12-04T19:34:04.249Z,2.16
2022-12-04T19:36:32.420Z,1.95
2022-12-04T19:39:00.189Z,2.17
2022-12-04T19:41:31.217Z,2.33
2022-12-04T19:44:07.791Z,2.47
2022-12-04T19:46:43.529Z,2.22
2022-12-04T19:49:11.699Z,2.58
2022-12-04T19:51:41.969Z,2.73
2022-12-04T19:54:12.229Z,2.70
2022-12-04T19:56:38.892Z,2.68
2022-12-04T19:59:08.050Z,2.59
2022-12-04T20:01:35.788Z,2.41
2022-12-04T20:04:06.685Z,2.75
2022-12-04T20:06:42.233Z,2.94
2022-12-04T20:09:19.027Z,2.93
2022-12-04T20:11:46.436Z,2.95
2022-12-04T20:14:13.280Z,2.82
2022-12-04T20:16:40.905Z,2.66
2022-12-04T20:19:12.775Z,2.73
2022-12-04T20:21:41.548Z,2.70
2022-12-04T20:24:08.499Z,2.63
2022-12-04T20:26:38.459Z,2.76
2022-12-04T20:29:09.745Z,2.52
2022-12-04T20:31:45.667Z,2.53
2022-12-04T20:34:15.554Z,2.66
2022-12-04T20:36:47.130Z,2.56
2022-12-04T20:39:15.032Z,2.58
2022-12-04T20:41:41.738Z,2.56
2022-12-04T20:44:13.692Z,2.75
2022-12-04T20:46:42.426Z,2.68
2022-12-04T20:49:18.823Z,2.75
2022-12-04T20:51:48.055Z,2.40
2022-12-04T20:54:20.419Z,2.26
2022-12-04T20:56:48.833Z,2.60
2022-12-04T20:59:17.948Z,2.74
2022-12-04T21:01:47.117Z,2.98
2022-12-04T21:04:18.181Z,3.02
2022-12-04T21:06:46.758Z,2.93
2022-12-04T21:09:22.576Z,2.75
2022-12-04T21:11:54.700Z,3.16
2022-12-04T21:14:42.726Z,3.25
2022-12-04T21:17:13.133Z,2.91
2022-12-04T21:19:40.012Z,2.61
2022-12-04T21:22:06.643Z,2.28
2022-12-04T21:24:38.805Z,2.74
2022-12-04T21:27:09.099Z,2.44
2022-12-04T21:29:37.241Z,2.66
2022-12-04T21:32:05.530Z,2.67
2022-12-04T21:34:32.715Z,2.88
2022-12-04T21:36:59.353Z,2.70
2022-12-04T21:39:26.143Z,2.66
2022-12-04T21:42:11.281Z,2.38
2022-12-04T21:44:44.048Z,2.98
2022-12-04T21:47:10.822Z,2.79
2022-12-04T21:49:37.381Z,2.77
2022-12-04T21:52:04.243Z,2.69
2022-12-04T21:54:31.020Z,2.56
2022-12-04T21:56:58.137Z,2.63
2022-12-04T21:59:26.191Z,2.48
2022-12-04T22:01:53.754Z,2.48
2022-12-04T22:04:23.425Z,3.15
2022-12-04T22:06:50.136Z,2.55
2022-12-04T22:09:17.206Z,2.70
2022-12-04T22:11:44.376Z,2.46
2022-12-04T22:14:12.265Z,2.42
2022-12-04T22:16:43.358Z,2.26
2022-12-04T22:19:12.095Z,2.44
2022-12-04T22:21:39.525Z,2.51
2022-12-04T22:24:07.127Z,2.70
2022-12-04T22:26:33.825Z,3.26
2022-12-04T22:29:00.696Z,2.71
2022-12-04T22:31:29.111Z,2.69
2022-12-04T22:33:58.250Z,2.49
2022-12-04T22:36:30.725Z,2.67
2022-12-04T22:39:09.673Z,2.69
2022-12-04T22:41:37.843Z,2.78
2022-12-04T22:44:05.276Z,2.75
2022-12-04T22:46:32.237Z,2.56
2022-12-04T22:48:59.935Z,2.40
2022-12-04T22:51:27.589Z,3.00
2022-12-04T22:53:56.731Z,2.93
2022-12-04T22:56:29.600Z,2.93
2022-12-04T22:58:57.794Z,2.92
2022-12-04T23:01:27.403Z,2.91
2022-12-04T23:03:55.030Z,2.96
2022-12-04T23:06:25.884Z,3.04
2022-12-04T23:09:07.979Z,2.82
2022-12-04T23:11:37.741Z,2.89
2022-12-04T23:14:06.737Z,2.98
2022-12-04T23:16:36.470Z,2.70
2022-12-04T23:19:04.193Z,2.94
2022-12-04T23:21:30.822Z,3.03
2022-12-04T23:23:57.880Z,2.87
2022-12-04T23:26:32.554Z,2.78
2022-12-04T23:28:59.906Z,3.13
2022-12-04T23:31:26.507Z,2.86
2022-12-04T23:33:53.318Z,2.75
2022-12-04T23:36:20.916Z,2.80
2022-12-04T23:38:47.517Z,2.97
2022-12-04T23:41:20.056Z,2.97
2022-12-04T23:43:48.383Z,2.66
2022-12-04T23:46:18.046Z,2.87
2022-12-04T23:48:45.675Z,2.56
2022-12-04T23:51:14.860Z,3.04
2022-12-04T23:53:41.935Z,2.68
2022-12-04T23:56:12.378Z,2.92
2022-12-04T23:58:41.769Z,2.98
